Time;durP1;ratioP1;P1;durP2;ratioP2;P2;SDS_P1;SDS_P2;PMS_P1;PMS_P2;Temp;Humidity;BMP_temperature;BMP_pressure;BME280_temperature;BME280_humidity;BME280_pressure;Samples;Min_cycle;Max_cycle;Signal;HPM_P1;HPM_P2
2022/06/30 00:01:48;;;;;;;;;;;15.10;99.90;;;;;;5014006;28;19921;-71
2022/06/30 00:04:15;;;;;;;;;;;15.10;99.90;;;;;;5019138;28;19928;-72
2022/06/30 00:06:43;;;;;;;;;;;15.10;99.90;;;;;;5017923;28;20307;-71
2022/06/30 00:09:11;;;;;;;;;;;15.10;99.90;;;;;;5018974;28;20275;-71
2022/06/30 00:11:38;;;;;;;;;;;15.20;99.90;;;;;;5018983;28;19921;-73
2022/06/30 00:14:06;;;;;;;;;;;15.10;99.90;;;;;;5017917;28;19944;-71
2022/06/30 00:16:33;;;;;;;;;;;15.10;99.90;;;;;;5018714;28;19922;-71
2022/06/30 00:19:01;;;;;;;;;;;15.10;99.90;;;;;;5018708;28;20371;-72
2022/06/30 00:21:28;;;;;;;;;;;15.10;99.90;;;;;;5017788;28;19921;-72
2022/06/30 00:23:56;;;;;;;;;;;15.10;99.90;;;;;;5001709;28;19921;-72
2022/06/30 00:26:23;;;;;;;;;;;15.10;99.90;;;;;;5017435;28;19992;-71
2022/06/30 00:28:51;;;;;;;;;;;15.10;99.90;;;;;;5018940;28;19921;-71
2022/06/30 00:31:18;;;;;;;;;;;15.10;99.90;;;;;;5018448;28;19921;-71
2022/06/30 00:33:46;;;;;;;;;;;15.10;99.90;;;;;;5017534;28;20276;-71
2022/06/30 00:36:13;;;;;;;;;;;15.10;99.90;;;;;;5018440;28;19921;-71
2022/06/30 00:38:40;;;;;;;;;;;15.10;99.90;;;;;;5018511;28;19929;-71
2022/06/30 00:41:08;;;;;;;;;;;14.90;99.90;;;;;;5017407;28;19922;-72
2022/06/30 00:43:43;;;;;;;;;;;15.00;99.90;;;;;;5018611;28;19929;-72
2022/06/30 00:46:10;;;;;;;;;;;14.90;99.90;;;;;;5018382;28;19928;-71
2022/06/30 00:48:37;;;;;;;;;;;14.90;99.90;;;;;;5017040;28;19928;-71
2022/06/30 00:51:05;;;;;;;;;;;14.90;99.90;;;;;;5018427;28;19922;-70
2022/06/30 00:53:35;;;;;;;;;;;14.90;99.90;;;;;;4999760;28;19921;-72
2022/06/30 00:56:04;;;;;;;;;;;14.80;99.90;;;;;;5017989;28;20275;-71
2022/06/30 00:58:34;;;;;;;;;;;14.90;99.90;;;;;;5017774;28;20363;-73
2022/06/30 01:01:04;;;;;;;;;;;14.80;99.90;;;;;;5016935;28;20023;-72
2022/06/30 01:03:32;;;;;;;;;;;14.80;99.90;;;;;;5000138;28;20279;-72
2022/06/30 01:06:00;;;;;;;;;;;14.80;99.90;;;;;;5017694;28;19921;-72
2022/06/30 01:08:29;;;;;;;;;;;14.80;99.90;;;;;;5016695;28;19928;-71
2022/06/30 01:14:02;;;;;;;;;;;14.70;99.90;;;;;;4993625;28;19932;-71
2022/06/30 01:16:30;;;;;;;;;;;14.70;99.90;;;;;;5017499;28;19929;-72
2022/06/30 01:18:58;;;;;;;;;;;14.80;99.90;;;;;;5017684;28;19925;-70
2022/06/30 01:21:26;;;;;;;;;;;14.60;99.90;;;;;;5016516;28;19925;-73
2022/06/30 01:23:54;;;;;;;;;;;14.60;99.90;;;;;;5017761;28;19929;-72
2022/06/30 01:26:24;;;;;;;;;;;14.70;99.90;;;;;;5016259;28;19944;-72
2022/06/30 01:28:51;;;;;;;;;;;14.70;99.90;;;;;;5000379;28;19921;-72
2022/06/30 01:31:19;;;;;;;;;;;14.70;99.90;;;;;;5017251;28;19922;-72
2022/06/30 01:33:47;;;;;;;;;;;14.70;99.90;;;;;;5016405;28;19922;-72
2022/06/30 01:36:14;;;;;;;;;;;14.70;99.90;;;;;;5017144;28;20301;-72
2022/06/30 01:38:41;;;;;;;;;;;14.70;99.90;;;;;;5017091;28;20359;-71
2022/06/30 01:41:09;;;;;;;;;;;14.70;99.90;;;;;;5015920;28;20359;-71
2022/06/30 01:43:36;;;;;;;;;;;14.70;99.90;;;;;;5017601;28;19922;-71
2022/06/30 01:46:03;;;;;;;;;;;14.70;99.90;;;;;;5017070;28;20359;-71
2022/06/30 01:48:31;;;;;;;;;;;14.60;99.90;;;;;;5016006;28;19922;-72
2022/06/30 01:50:58;;;;;;;;;;;14.70;99.90;;;;;;5016899;28;19928;-72
2022/06/30 01:53:25;;;;;;;;;;;14.80;99.90;;;;;;5016019;28;19928;-71
2022/06/30 01:55:53;;;;;;;;;;;14.80;99.90;;;;;;4999818;28;19925;-70
2022/06/30 01:58:20;;;;;;;;;;;14.80;99.90;;;;;;5016926;28;19925;-71
2022/06/30 02:00:47;;;;;;;;;;;14.80;99.90;;;;;;5015538;28;19928;-71
2022/06/30 02:03:15;;;;;;;;;;;14.80;99.90;;;;;;4999994;28;20353;-73
2022/06/30 02:05:43;;;;;;;;;;;14.80;99.90;;;;;;4999896;28;19928;-71
2022/06/30 02:08:10;;;;;;;;;;;14.70;99.90;;;;;;5015462;28;19932;-72
2022/06/30 02:10:37;;;;;;;;;;;14.80;99.90;;;;;;5016570;28;19933;-72
2022/06/30 02:13:05;;;;;;;;;;;14.70;99.90;;;;;;5015525;28;19929;-71
2022/06/30 02:15:33;;;;;;;;;;;14.70;99.90;;;;;;5016807;28;20348;-72
2022/06/30 02:18:02;;;;;;;;;;;14.70;99.90;;;;;;5016525;28;19928;-71
2022/06/30 02:20:30;;;;;;;;;;;14.70;99.90;;;;;;5015321;28;19925;-71
2022/06/30 02:22:58;;;;;;;;;;;14.70;99.90;;;;;;5016326;28;19928;-72
2022/06/30 02:25:26;;;;;;;;;;;14.70;99.90;;;;;;5016612;28;19929;-72
2022/06/30 02:27:54;;;;;;;;;;;14.60;99.90;;;;;;5015191;28;20264;-73
2022/06/30 02:30:22;;;;;;;;;;;14.60;99.90;;;;;;5016186;28;19928;-73
2022/06/30 02:32:50;;;;;;;;;;;14.60;99.90;;;;;;4999123;28;19936;-71
2022/06/30 02:35:18;;;;;;;;;;;14.50;99.90;;;;;;4998060;28;19996;-72
2022/06/30 02:37:45;;;;;;;;;;;14.60;99.90;;;;;;5016294;28;19921;-71
2022/06/30 02:40:13;;;;;;;;;;;14.50;99.90;;;;;;5014946;28;19921;-72
2022/06/30 02:42:40;;;;;;;;;;;14.60;99.90;;;;;;5015919;28;20372;-72
2022/06/30 02:45:08;;;;;;;;;;;14.60;99.90;;;;;;5015943;28;19928;-73
2022/06/30 02:47:36;;;;;;;;;;;14.50;99.90;;;;;;5014880;28;19929;-72
2022/06/30 02:50:06;;;;;;;;;;;14.50;99.90;;;;;;5015823;28;20276;-72
2022/06/30 02:52:34;;;;;;;;;;;14.50;99.90;;;;;;4999302;28;19921;-72
2022/06/30 02:55:02;;;;;;;;;;;14.50;99.90;;;;;;5013879;28;20356;-71
2022/06/30 02:57:29;;;;;;;;;;;15.00;99.90;;;;;;5015826;28;19928;-72
2022/06/30 02:59:57;;;;;;;;;;;14.50;99.90;;;;;;5014825;28;20273;-73
2022/06/30 03:02:24;;;;;;;;;;;14.50;99.90;;;;;;5015603;28;19929;-72
2022/06/30 03:04:52;;;;;;;;;;;14.50;99.90;;;;;;5015694;28;20276;-71
2022/06/30 03:07:19;;;;;;;;;;;14.40;99.90;;;;;;5014572;28;20360;-72
2022/06/30 03:09:46;;;;;;;;;;;14.40;99.90;;;;;;5015918;28;19933;-71
2022/06/30 03:12:14;;;;;;;;;;;14.40;99.90;;;;;;5015687;28;19921;-72
2022/06/30 03:14:41;;;;;;;;;;;14.40;99.90;;;;;;5014306;28;19921;-71
2022/06/30 03:17:09;;;;;;;;;;;14.50;99.90;;;;;;5015503;28;19922;-72
2022/06/30 03:19:36;;;;;;;;;;;14.40;99.90;;;;;;5016093;28;19921;-72
2022/06/30 03:22:04;;;;;;;;;;;14.40;99.90;;;;;;5014299;28;19925;-73
2022/06/30 03:24:31;;;;;;;;;;;14.40;99.90;;;;;;5015638;28;19921;-72
2022/06/30 03:26:59;;;;;;;;;;;14.40;99.90;;;;;;4997298;28;19932;-71
2022/06/30 03:29:26;;;;;;;;;;;14.30;99.90;;;;;;5015387;28;19921;-72
2022/06/30 03:31:53;;;;;;;;;;;14.30;99.90;;;;;;5015356;28;19928;-73
2022/06/30 03:34:21;;;;;;;;;;;14.30;99.90;;;;;;5014596;28;19925;-71
2022/06/30 03:36:49;;;;;;;;;;;14.30;99.90;;;;;;4997956;28;19928;-73
2022/06/30 03:39:16;;;;;;;;;;;14.30;99.90;;;;;;5015234;28;19922;-72
2022/06/30 03:41:44;;;;;;;;;;;14.10;99.90;;;;;;5014130;28;20267;-73
2022/06/30 03:44:11;;;;;;;;;;;14.30;99.90;;;;;;5015249;28;19931;-72
2022/06/30 03:46:38;;;;;;;;;;;14.20;99.90;;;;;;4997171;28;19921;-72
2022/06/30 03:49:06;;;;;;;;;;;14.20;99.90;;;;;;5015565;28;19921;-73
2022/06/30 03:51:33;;;;;;;;;;;14.20;99.90;;;;;;5015545;28;19921;-73
2022/06/30 03:54:01;;;;;;;;;;;14.20;99.90;;;;;;5014167;28;20283;-72
2022/06/30 03:56:28;;;;;;;;;;;14.10;99.90;;;;;;4998146;28;20294;-71
2022/06/30 03:58:55;;;;;;;;;;;14.10;99.90;;;;;;4981672;28;19925;-73
2022/06/30 04:01:23;;;;;;;;;;;14.10;99.90;;;;;;5014015;28;19921;-73
2022/06/30 04:03:50;;;;;;;;;;;14.10;99.90;;;;;;4998167;28;19921;-72
2022/06/30 04:06:18;;;;;;;;;;;14.10;99.90;;;;;;5014871;28;19929;-72
2022/06/30 04:08:45;;;;;;;;;;;14.10;99.90;;;;;;5014814;28;20264;-72
2022/06/30 04:11:13;;;;;;;;;;;14.20;99.90;;;;;;5014609;28;19944;-71
2022/06/30 04:13:40;;;;;;;;;;;14.20;99.90;;;;;;5013856;28;19922;-72
2022/06/30 04:16:08;;;;;;;;;;;14.10;99.90;;;;;;5014617;28;19937;-72
2022/06/30 04:18:39;;;;;;;;;;;14.20;99.90;;;;;;5014876;28;19921;-72
2022/06/30 04:21:06;;;;;;;;;;;14.20;99.90;;;;;;5013615;28;19946;-72
2022/06/30 04:23:33;;;;;;;;;;;14.20;99.90;;;;;;5014824;28;19921;-71
2022/06/30 04:26:01;;;;;;;;;;;14.20;99.90;;;;;;4997630;28;19932;-71
2022/06/30 04:28:28;;;;;;;;;;;14.20;99.90;;;;;;5013845;28;19922;-71
2022/06/30 04:33:44;;;;;;;;;;;14.30;99.90;;;;;;5013705;28;19921;-71
2022/06/30 04:36:12;;;;;;;;;;;14.30;99.90;;;;;;5014943;28;19929;-71
2022/06/30 04:38:39;;;;;;;;;;;14.30;99.90;;;;;;5014648;28;19921;-71
2022/06/30 04:41:25;;;;;;;;;;;14.40;99.90;;;;;;4996412;28;19922;-71
2022/06/30 04:43:57;;;;;;;;;;;14.40;99.90;;;;;;4997944;28;19921;-73
2022/06/30 04:46:24;;;;;;;;;;;14.40;99.90;;;;;;5013634;28;19921;-71
2022/06/30 04:48:53;;;;;;;;;;;14.60;99.90;;;;;;5014905;28;19930;-72
2022/06/30 04:51:20;;;;;;;;;;;14.60;99.90;;;;;;5001386;28;19921;-72
2022/06/30 04:53:48;;;;;;;;;;;14.60;99.90;;;;;;5017492;28;19933;-72
2022/06/30 04:56:17;;;;;;;;;;;14.60;99.90;;;;;;5018011;28;19922;-71
2022/06/30 04:58:45;;;;;;;;;;;14.70;99.90;;;;;;5017938;28;19922;-72
2022/06/30 05:01:12;;;;;;;;;;;14.70;99.90;;;;;;5016806;28;19921;-72
2022/06/30 05:03:40;;;;;;;;;;;14.70;99.90;;;;;;5018348;28;19929;-72
2022/06/30 05:06:08;;;;;;;;;;;14.60;99.90;;;;;;5017802;28;20344;-71
2022/06/30 05:08:35;;;;;;;;;;;14.60;99.90;;;;;;4999533;28;20360;-71
2022/06/30 05:11:03;;;;;;;;;;;14.70;99.90;;;;;;5017930;28;19951;-71
2022/06/30 05:13:30;;;;;;;;;;;15.10;99.90;;;;;;5016628;28;19936;-71
2022/06/30 05:15:58;;;;;;;;;;;14.70;99.90;;;;;;5017395;28;19921;-72
2022/06/30 05:18:27;;;;;;;;;;;14.70;99.90;;;;;;5017659;28;19921;-72
2022/06/30 05:20:54;;;;;;;;;;;14.70;99.90;;;;;;5016434;28;19921;-71
2022/06/30 05:23:22;;;;;;;;;;;14.70;99.90;;;;;;5017743;28;20352;-72
2022/06/30 05:28:35;;;;;;;;;;;14.70;99.90;;;;;;5016320;28;19925;-71
2022/06/30 05:31:03;;;;;;;;;;;14.70;99.90;;;;;;5000248;28;19922;-72
2022/06/30 05:33:30;;;;;;;;;;;14.80;99.90;;;;;;5016311;28;19921;-72
2022/06/30 05:35:58;;;;;;;;;;;14.80;99.90;;;;;;5017251;28;20264;-72
2022/06/30 05:38:25;;;;;;;;;;;14.80;99.90;;;;;;5017251;28;20305;-72
2022/06/30 05:40:52;;;;;;;;;;;14.90;99.90;;;;;;5016055;28;19940;-71
2022/06/30 05:43:20;;;;;;;;;;;15.00;99.90;;;;;;5000175;28;19921;-70
2022/06/30 05:45:50;;;;;;;;;;;15.00;99.90;;;;;;5017183;28;20259;-71
2022/06/30 05:48:18;;;;;;;;;;;15.00;99.90;;;;;;5016273;28;19921;-72
2022/06/30 05:50:47;;;;;;;;;;;15.10;99.90;;;;;;5017119;28;19922;-72
2022/06/30 05:53:15;;;;;;;;;;;15.10;99.90;;;;;;5015826;28;19921;-71
2022/06/30 05:55:43;;;;;;;;;;;15.20;99.90;;;;;;5017483;28;19921;-72
2022/06/30 05:58:11;;;;;;;;;;;15.20;99.90;;;;;;5017067;28;19989;-72
2022/06/30 06:00:38;;;;;;;;;;;15.40;99.90;;;;;;5015148;28;19936;-71
2022/06/30 06:03:05;;;;;;;;;;;15.30;99.90;;;;;;5016687;28;20374;-71
2022/06/30 06:05:33;;;;;;;;;;;15.30;99.90;;;;;;5017054;28;20272;-72
2022/06/30 06:08:05;;;;;;;;;;;15.40;99.90;;;;;;4998450;28;19921;-71
2022/06/30 06:10:32;;;;;;;;;;;15.40;99.90;;;;;;4999801;28;19925;-73
2022/06/30 06:12:59;;;;;;;;;;;15.40;99.90;;;;;;5016636;28;20344;-71
2022/06/30 06:15:27;;;;;;;;;;;15.50;99.90;;;;;;5016416;28;20355;-71
2022/06/30 06:17:54;;;;;;;;;;;15.40;99.90;;;;;;5016753;28;19922;-71
2022/06/30 06:20:21;;;;;;;;;;;15.40;99.90;;;;;;5015259;28;19925;-71
2022/06/30 06:22:49;;;;;;;;;;;15.40;99.90;;;;;;5017094;28;19921;-71
2022/06/30 06:25:16;;;;;;;;;;;15.40;99.90;;;;;;5016596;28;19921;-72
2022/06/30 06:29:05;;;;;;;;;;;15.40;99.90;;;;;;5015366;28;20374;-70
2022/06/30 06:30:31;;;;;;;;;;;15.40;99.90;;;;;;5016322;28;20360;-71
2022/06/30 06:32:58;;;;;;;;;;;15.50;99.90;;;;;;5016511;28;19921;-72
2022/06/30 06:35:26;;;;;;;;;;;15.50;99.90;;;;;;4998996;28;19922;-70
2022/06/30 06:37:54;;;;;;;;;;;15.60;99.90;;;;;;5016366;28;19928;-71
2022/06/30 06:40:21;;;;;;;;;;;15.70;99.90;;;;;;5015458;28;19928;-72
2022/06/30 06:42:48;;;;;;;;;;;15.80;99.90;;;;;;5016066;28;19929;-73
2022/06/30 06:45:16;;;;;;;;;;;15.80;99.90;;;;;;5016338;28;19933;-71
2022/06/30 06:47:43;;;;;;;;;;;15.90;99.90;;;;;;5015064;28;19925;-72
2022/06/30 06:50:11;;;;;;;;;;;16.00;99.90;;;;;;5016034;28;19923;-71
2022/06/30 06:52:38;;;;;;;;;;;16.10;99.90;;;;;;5015950;28;19928;-71
2022/06/30 06:55:06;;;;;;;;;;;16.00;99.90;;;;;;5014914;28;19929;-72
2022/06/30 06:57:37;;;;;;;;;;;16.10;99.90;;;;;;5016042;28;19921;-70
2022/06/30 07:00:05;;;;;;;;;;;16.10;99.90;;;;;;5014888;28;19928;-72
2022/06/30 07:02:32;;;;;;;;;;;16.50;99.90;;;;;;5015961;28;19922;-72
2022/06/30 07:05:00;;;;;;;;;;;16.30;99.90;;;;;;5014931;28;19921;-71
2022/06/30 07:07:33;;;;;;;;;;;16.40;99.90;;;;;;5014302;28;19921;-71
2022/06/30 07:10:02;;;;;;;;;;;16.40;99.90;;;;;;5016207;28;19928;-72
2022/06/30 07:12:29;;;;;;;;;;;16.50;99.50;;;;;;4997301;28;19925;-71
2022/06/30 07:14:57;;;;;;;;;;;16.60;99.20;;;;;;5028072;28;19987;-71
2022/06/30 07:17:24;;;;;;;;;;;16.60;99.50;;;;;;5035080;28;19921;-71
2022/06/30 07:19:51;;;;;;;;;;;16.70;99.20;;;;;;5034052;28;20343;-72
2022/06/30 07:22:19;;;;;;;;;;;16.70;98.50;;;;;;5034884;28;19921;-71
2022/06/30 07:24:46;;;;;;;;;;;16.80;99.10;;;;;;5035244;28;19921;-72
2022/06/30 07:27:13;;;;;;;;;;;16.80;98.70;;;;;;5034028;28;19921;-72
2022/06/30 07:29:41;;;;;;;;;;;16.80;97.80;;;;;;5034935;28;19921;-73
2022/06/30 07:32:09;;;;;;;;;;;16.70;97.20;;;;;;5032139;28;19921;-73
2022/06/30 07:34:36;;;;;;;;;;;16.60;98.50;;;;;;5010873;28;19932;-73
2022/06/30 07:37:04;;;;;;;;;;;16.50;98.10;;;;;;5031218;28;19925;-73
2022/06/30 07:39:31;;;;;;;;;;;16.60;98.70;;;;;;5027289;28;20367;-71
2022/06/30 07:41:58;;;;;;;;;;;16.50;97.80;;;;;;5016410;28;19925;-71
2022/06/30 07:44:26;;;;;;;;;;;16.40;97.80;;;;;;5035099;28;20355;-71
2022/06/30 07:46:53;;;;;;;;;;;16.40;97.80;;;;;;5034258;28;20351;-70
2022/06/30 07:49:21;;;;;;;;;;;16.30;98.30;;;;;;5034967;28;19929;-72
2022/06/30 07:51:48;;;;;;;;;;;16.30;98.80;;;;;;5034945;28;19928;-71
2022/06/30 07:54:16;;;;;;;;;;;16.40;98.70;;;;;;5034060;28;19928;-73
2022/06/30 07:56:44;;;;;;;;;;;16.50;98.20;;;;;;5017613;28;19921;-72
2022/06/30 07:59:13;;;;;;;;;;;16.60;97.80;;;;;;5035284;28;19921;-73
2022/06/30 08:01:40;;;;;;;;;;;16.70;97.60;;;;;;5033903;28;20244;-72
2022/06/30 08:04:08;;;;;;;;;;;16.90;96.80;;;;;;5018410;28;19940;-72
2022/06/30 08:06:36;;;;;;;;;;;17.00;97.30;;;;;;5000912;28;19921;-72
2022/06/30 08:09:03;;;;;;;;;;;17.00;97.10;;;;;;5035407;28;19921;-72
2022/06/30 08:11:31;;;;;;;;;;;17.10;97.20;;;;;;5018223;28;19921;-73
2022/06/30 08:13:59;;;;;;;;;;;17.20;97.40;;;;;;5034217;28;19921;-75
2022/06/30 08:16:27;;;;;;;;;;;17.30;97.40;;;;;;5034241;28;19940;-73
2022/06/30 08:19:02;;;;;;;;;;;18.40;96.90;;;;;;5001008;28;19921;-73
2022/06/30 08:21:30;;;;;;;;;;;17.50;97.00;;;;;;5033421;28;19925;-73
2022/06/30 08:23:57;;;;;;;;;;;17.60;96.30;;;;;;5036641;28;19928;-73
2022/06/30 08:26:25;;;;;;;;;;;17.70;96.20;;;;;;5020026;28;20360;-73
2022/06/30 08:28:52;;;;;;;;;;;17.70;95.40;;;;;;5038103;28;19921;-72
2022/06/30 08:31:19;;;;;;;;;;;17.80;95.40;;;;;;5038251;28;19936;-73
2022/06/30 08:33:50;;;;;;;;;;;17.80;95.50;;;;;;5037019;28;20275;-73
2022/06/30 08:36:17;;;;;;;;;;;17.90;94.30;;;;;;5038152;28;20331;-73
2022/06/30 08:38:45;;;;;;;;;;;18.00;95.20;;;;;;5038142;28;20339;-73
2022/06/30 08:44:02;;;;;;;;;;;18.10;94.90;;;;;;5037582;28;19921;-72
2022/06/30 08:46:30;;;;;;;;;;;18.10;93.70;;;;;;5036839;28;19920;-73
2022/06/30 08:49:00;;;;;;;;;;;18.10;93.60;;;;;;5038139;28;19921;-74
2022/06/30 08:51:29;;;;;;;;;;;18.10;93.20;;;;;;5037941;28;19921;-73
2022/06/30 08:53:57;;;;;;;;;;;18.10;93.00;;;;;;5036973;28;19921;-73
2022/06/30 08:56:28;;;;;;;;;;;18.20;93.70;;;;;;5037745;28;19928;-74
2022/06/30 08:58:55;;;;;;;;;;;18.30;92.90;;;;;;5037368;28;19928;-74
2022/06/30 09:01:25;;;;;;;;;;;18.40;92.80;;;;;;5019283;28;19997;-73
2022/06/30 09:03:53;;;;;;;;;;;18.60;92.70;;;;;;5038290;28;19925;-74
2022/06/30 09:06:20;;;;;;;;;;;18.70;91.70;;;;;;5036987;28;19979;-74
2022/06/30 09:09:03;;;;;;;;;;;18.80;91.60;;;;;;5038281;28;19928;-74
2022/06/30 09:11:49;;;;;;;;;;;18.80;90.50;;;;;;5037920;28;19921;-74
2022/06/30 09:14:33;;;;;;;;;;;18.80;90.80;;;;;;5019803;28;19920;-73
2022/06/30 09:17:01;;;;;;;;;;;18.90;90.50;;;;;;5038224;28;19928;-74
2022/06/30 09:19:30;;;;;;;;;;;18.80;90.80;;;;;;5037297;28;19921;-74
2022/06/30 09:22:04;;;;;;;;;;;18.80;89.10;;;;;;5036407;28;19921;-75
2022/06/30 09:24:32;;;;;;;;;;;18.70;88.30;;;;;;5037629;28;20275;-74
2022/06/30 09:27:08;;;;;;;;;;;18.60;90.20;;;;;;5036736;28;20236;-74
2022/06/30 09:29:45;;;;;;;;;;;18.70;90.00;;;;;;5037834;28;19921;-74
2022/06/30 09:32:53;;;;;;;;;;;18.70;91.10;;;;;;5019870;28;19936;-74
2022/06/30 09:35:22;;;;;;;;;;;18.60;90.60;;;;;;5035693;28;19928;-74
2022/06/30 09:38:15;;;;;;;;;;;18.70;91.20;;;;;;5037729;28;19921;-74
2022/06/30 09:41:04;;;;;;;;;;;18.80;90.60;;;;;;5034109;28;19924;-75
2022/06/30 09:43:35;;;;;;;;;;;18.90;90.90;;;;;;5037731;28;19921;-73
2022/06/30 09:46:04;;;;;;;;;;;19.00;90.40;;;;;;5019937;28;20340;-74
2022/06/30 09:48:38;;;;;;;;;;;19.10;90.40;;;;;;5018930;28;19921;-74
2022/06/30 09:51:06;;;;;;;;;;;18.90;90.00;;;;;;5037692;28;19928;-74
2022/06/30 09:53:33;;;;;;;;;;;19.10;89.40;;;;;;5035303;28;19925;-73
2022/06/30 09:56:14;;;;;;;;;;;19.20;90.40;;;;;;5037071;28;20267;-73
2022/06/30 09:58:42;;;;;;;;;;;19.20;89.20;;;;;;5036747;28;19921;-73
2022/06/30 10:01:10;;;;;;;;;;;19.40;89.70;;;;;;5035940;28;20279;-74
2022/06/30 10:03:48;;;;;;;;;;;19.40;87.40;;;;;;5037247;28;19932;-73
2022/06/30 10:06:17;;;;;;;;;;;19.40;89.80;;;;;;5036881;28;19921;-73
2022/06/30 10:08:44;;;;;;;;;;;19.40;89.10;;;;;;5018242;28;19924;-73
2022/06/30 10:11:12;;;;;;;;;;;19.40;88.90;;;;;;5019441;28;19928;-73
2022/06/30 10:13:41;;;;;;;;;;;19.40;88.50;;;;;;5036034;28;19920;-73
2022/06/30 10:16:12;;;;;;;;;;;19.40;89.40;;;;;;5036395;28;19921;-73
2022/06/30 10:18:39;;;;;;;;;;;19.40;88.30;;;;;;5003130;28;19940;-73
2022/06/30 10:21:10;;;;;;;;;;;19.40;89.00;;;;;;5035825;28;19921;-73
2022/06/30 10:23:38;;;;;;;;;;;19.30;89.30;;;;;;5036307;28;20275;-74
2022/06/30 10:26:06;;;;;;;;;;;19.40;89.10;;;;;;5036764;28;19921;-74
2022/06/30 10:28:34;;;;;;;;;;;19.40;89.60;;;;;;5035260;28;19928;-74
2022/06/30 10:31:01;;;;;;;;;;;19.50;89.00;;;;;;5019527;28;19921;-74
2022/06/30 10:33:28;;;;;;;;;;;19.60;89.70;;;;;;5035457;28;19921;-74
2022/06/30 10:36:01;;;;;;;;;;;19.80;89.80;;;;;;5019122;28;19944;-74
2022/06/30 10:38:33;;;;;;;;;;;19.90;88.30;;;;;;5036026;28;19920;-74
2022/06/30 10:41:11;;;;;;;;;;;19.80;88.60;;;;;;5035333;28;19921;-73
2022/06/30 10:43:57;;;;;;;;;;;19.80;87.90;;;;;;5036390;28;19921;-74
2022/06/30 10:46:24;;;;;;;;;;;19.70;88.60;;;;;;5035170;28;19925;-73
2022/06/30 10:48:53;;;;;;;;;;;19.60;88.20;;;;;;5035748;28;19928;-73
2022/06/30 10:51:22;;;;;;;;;;;19.60;88.50;;;;;;5035899;28;19928;-73
2022/06/30 10:53:56;;;;;;;;;;;19.60;88.60;;;;;;5035189;28;19921;-73
2022/06/30 10:56:26;;;;;;;;;;;19.60;89.80;;;;;;5035619;28;19932;-74
2022/06/30 10:59:03;;;;;;;;;;;19.80;88.70;;;;;;5018784;28;20267;-74
2022/06/30 11:01:31;;;;;;;;;;;19.80;88.60;;;;;;5034752;28;19928;-74
2022/06/30 11:03:59;;;;;;;;;;;19.90;89.00;;;;;;5035541;28;19947;-75
2022/06/30 11:06:45;;;;;;;;;;;19.80;87.80;;;;;;5034942;28;19921;-73
2022/06/30 11:09:13;;;;;;;;;;;19.60;87.70;;;;;;5036013;28;19928;-73
2022/06/30 11:11:40;;;;;;;;;;;19.40;87.60;;;;;;5036131;28;19940;-73
2022/06/30 11:14:08;;;;;;;;;;;19.30;88.70;;;;;;5034592;28;19928;-74
2022/06/30 11:16:36;;;;;;;;;;;19.10;88.20;;;;;;5035181;28;20060;-74
2022/06/30 11:19:04;;;;;;;;;;;19.00;89.10;;;;;;5035710;28;19935;-73
2022/06/30 11:21:32;;;;;;;;;;;19.00;89.30;;;;;;5034327;28;19921;-74
2022/06/30 11:24:00;;;;;;;;;;;18.80;89.70;;;;;;5018585;28;19921;-75
2022/06/30 11:29:15;;;;;;;;;;;18.60;90.60;;;;;;5035576;28;20344;-74
2022/06/30 11:31:43;;;;;;;;;;;18.50;90.70;;;;;;5018285;28;19944;-74
2022/06/30 11:34:19;;;;;;;;;;;18.40;90.60;;;;;;5034431;28;20347;-73
2022/06/30 11:36:47;;;;;;;;;;;18.20;91.00;;;;;;5035649;28;19927;-74
2022/06/30 11:39:17;;;;;;;;;;;18.20;91.20;;;;;;5035052;28;19943;-74
2022/06/30 11:41:59;;;;;;;;;;;18.10;91.80;;;;;;5017202;28;19920;-73
2022/06/30 11:44:38;;;;;;;;;;;18.10;93.60;;;;;;5035502;28;20236;-74
2022/06/30 11:47:07;;;;;;;;;;;18.00;93.20;;;;;;5034159;28;19927;-74
2022/06/30 11:49:43;;;;;;;;;;;18.00;93.90;;;;;;5035628;28;19921;-73
2022/06/30 11:52:20;;;;;;;;;;;18.00;93.30;;;;;;5034982;28;20332;-73
2022/06/30 11:54:48;;;;;;;;;;;18.10;93.40;;;;;;5033720;28;20446;-73
2022/06/30 11:57:18;;;;;;;;;;;18.40;92.60;;;;;;5035020;28;19928;-74
2022/06/30 11:59:57;;;;;;;;;;;18.70;92.90;;;;;;5038229;28;19921;-72
2022/06/30 12:02:24;;;;;;;;;;;19.10;92.30;;;;;;5021566;28;20344;-73
2022/06/30 12:04:56;;;;;;;;;;;19.30;91.20;;;;;;5022024;28;19928;-75
2022/06/30 12:07:25;;;;;;;;;;;19.60;90.10;;;;;;5038316;28;19921;-72
2022/06/30 12:09:52;;;;;;;;;;;19.70;89.30;;;;;;5005272;28;19920;-71
2022/06/30 12:12:26;;;;;;;;;;;19.90;87.60;;;;;;5038975;28;20256;-71
2022/06/30 12:14:54;;;;;;;;;;;20.00;87.80;;;;;;5037686;28;19925;-72
2022/06/30 12:17:22;;;;;;;;;;;19.90;85.10;;;;;;5039080;28;19928;-71
2022/06/30 12:19:51;;;;;;;;;;;20.00;85.60;;;;;;5037750;28;19921;-72
2022/06/30 12:22:19;;;;;;;;;;;20.10;86.60;;;;;;5039066;28;19921;-73
2022/06/30 12:24:47;;;;;;;;;;;20.20;87.10;;;;;;5038487;28;19925;-73
2022/06/30 12:27:36;;;;;;;;;;;20.30;85.90;;;;;;5037939;28;19963;-72
2022/06/30 12:30:09;;;;;;;;;;;20.50;86.00;;;;;;5021011;28;20359;-73
2022/06/30 12:32:36;;;;;;;;;;;20.50;83.30;;;;;;5039036;28;19924;-73
2022/06/30 12:35:08;;;;;;;;;;;20.40;83.70;;;;;;5020642;28;20263;-73
2022/06/30 12:37:36;;;;;;;;;;;20.40;84.00;;;;;;5038453;28;19932;-73
2022/06/30 12:40:14;;;;;;;;;;;20.30;82.40;;;;;;5020004;28;19925;-73
2022/06/30 12:42:53;;;;;;;;;;;20.20;81.70;;;;;;5038372;28;19936;-72
2022/06/30 12:45:39;;;;;;;;;;;20.20;82.10;;;;;;5038378;28;20260;-73
2022/06/30 12:48:07;;;;;;;;;;;20.10;82.30;;;;;;5037340;28;19933;-72
2022/06/30 12:50:35;;;;;;;;;;;20.10;80.80;;;;;;5037962;28;19921;-72
2022/06/30 12:53:19;;;;;;;;;;;20.20;82.30;;;;;;5037472;28;20339;-72
2022/06/30 12:56:00;;;;;;;;;;;20.30;82.20;;;;;;5038136;28;20271;-72
2022/06/30 12:58:43;;;;;;;;;;;20.30;82.40;;;;;;5037788;28;19921;-71
2022/06/30 13:01:15;;;;;;;;;;;20.30;81.30;;;;;;5020097;28;19928;-72
2022/06/30 13:03:50;;;;;;;;;;;20.20;81.70;;;;;;5037921;28;20283;-74
2022/06/30 13:06:18;;;;;;;;;;;20.20;81.40;;;;;;5037939;28;19921;-73
2022/06/30 13:08:46;;;;;;;;;;;20.10;81.00;;;;;;5020376;28;19920;-73
2022/06/30 13:11:15;;;;;;;;;;;20.10;82.10;;;;;;5036338;28;19928;-72
2022/06/30 13:13:44;;;;;;;;;;;20.10;80.90;;;;;;5036914;28;19921;-72
2022/06/30 13:16:12;;;;;;;;;;;20.00;80.60;;;;;;5037665;28;19921;-72
2022/06/30 13:18:40;;;;;;;;;;;20.00;80.80;;;;;;5037457;28;19921;-72
2022/06/30 13:21:07;;;;;;;;;;;20.10;82.10;;;;;;5003039;28;19925;-72
2022/06/30 13:23:35;;;;;;;;;;;20.30;82.50;;;;;;5038174;28;19921;-72
2022/06/30 13:26:03;;;;;;;;;;;20.30;81.30;;;;;;5037498;28;20355;-73
2022/06/30 13:28:30;;;;;;;;;;;20.20;82.30;;;;;;5036741;28;20260;-73
2022/06/30 13:30:59;;;;;;;;;;;20.20;81.20;;;;;;5037237;28;19928;-74
2022/06/30 13:33:27;;;;;;;;;;;20.10;81.50;;;;;;5036926;28;19925;-73
2022/06/30 13:35:54;;;;;;;;;;;20.00;81.80;;;;;;5020615;28;19921;-72
2022/06/30 13:38:23;;;;;;;;;;;20.00;81.10;;;;;;5037335;28;19921;-71
2022/06/30 13:40:51;;;;;;;;;;;20.00;82.20;;;;;;5019243;28;19928;-72
2022/06/30 13:43:18;;;;;;;;;;;19.90;81.90;;;;;;5037283;28;19921;-73
2022/06/30 13:45:46;;;;;;;;;;;19.80;81.80;;;;;;5037455;28;19921;-73
2022/06/30 13:48:14;;;;;;;;;;;19.70;82.30;;;;;;5036066;28;19921;-74
2022/06/30 13:50:41;;;;;;;;;;;19.60;81.70;;;;;;5037160;28;19921;-73
2022/06/30 13:53:09;;;;;;;;;;;19.60;83.10;;;;;;5019198;28;19928;-74
2022/06/30 13:55:37;;;;;;;;;;;19.60;83.00;;;;;;5037095;28;19921;-71
2022/06/30 13:58:04;;;;;;;;;;;19.70;82.90;;;;;;5036814;28;20268;-73
2022/06/30 14:00:33;;;;;;;;;;;19.60;81.10;;;;;;5036007;28;19921;-73
2022/06/30 14:03:01;;;;;;;;;;;19.60;82.80;;;;;;5037290;28;19921;-74
2022/06/30 14:05:29;;;;;;;;;;;19.70;82.80;;;;;;5037258;28;19921;-74
2022/06/30 14:07:56;;;;;;;;;;;19.70;82.10;;;;;;5035929;28;19921;-75
2022/06/30 14:10:24;;;;;;;;;;;19.70;80.80;;;;;;5036548;28;19928;-72
2022/06/30 14:12:53;;;;;;;;;;;19.70;81.40;;;;;;5036503;28;20248;-73
2022/06/30 14:15:21;;;;;;;;;;;19.90;81.50;;;;;;5035709;28;20255;-75
2022/06/30 14:17:49;;;;;;;;;;;20.00;81.60;;;;;;5019759;28;19927;-73
2022/06/30 14:20:16;;;;;;;;;;;20.20;81.20;;;;;;5035882;28;19921;-75
2022/06/30 14:22:44;;;;;;;;;;;20.40;81.60;;;;;;5035783;28;19921;-74
2022/06/30 14:25:12;;;;;;;;;;;20.50;81.10;;;;;;5036615;28;19932;-74
2022/06/30 14:27:39;;;;;;;;;;;20.80;81.30;;;;;;5035385;28;19928;-72
2022/06/30 14:30:08;;;;;;;;;;;21.00;80.00;;;;;;5036257;28;19928;-73
2022/06/30 14:32:36;;;;;;;;;;;21.40;79.10;;;;;;5018969;28;19921;-72
2022/06/30 14:35:05;;;;;;;;;;;21.70;78.70;;;;;;5035474;28;19925;-72
2022/06/30 14:37:32;;;;;;;;;;;21.90;76.70;;;;;;5019297;28;19921;-72
2022/06/30 14:40:00;;;;;;;;;;;22.20;77.90;;;;;;5035487;28;20408;-71
2022/06/30 14:45:15;;;;;;;;;;;22.60;76.10;;;;;;5036095;28;19921;-75